Burewala Weather



Burewala's Current Weather

Temprature 21.66o clear sky

clear sky

Rain: 0 %

Min Temprature21.66o
Max Temprature21.66o
Humidity33
Wind Speed2.48 m/h
Sun Rise05:48:51
Sun Set18:32:34
Current Time: 09-Apr-2020 03:09:41
Lat/Lon: 30.17, 72.65




Burewala's Geo Location



Burewala's Weather Forecast

Time Overall Temp Min Temp Max Temp Humidity Wind Speed Rain
09-Apr-2020 (Thu)
05:00:00 clear sky 20.690 20.690 20.690 33 1.87 m/h 0 %
08:00:00 clear sky 26.100 26.100 26.100 25 2.11 m/h 0 %
11:00:00 scattered clouds 32.720 32.720 32.720 16 2.92 m/h 0 %
14:00:00 overcast clouds 35.470 35.470 35.470 13 4 m/h 0 %
17:00:00 overcast clouds 34.670 34.670 34.670 14 1.86 m/h 0 %
20:00:00 overcast clouds 28.170 28.170 28.170 21 0.3 m/h 0 %
23:00:00 overcast clouds 27.110 27.110 27.110 23 1.79 m/h 0 %
10-Apr-2020 (Fri)
02:00:00 light rain 24.810 24.810 24.810 28 2.73 m/h 15 %
05:00:00 scattered clouds 22.290 22.290 22.290 34 2.62 m/h 0 %
08:00:00 clear sky 26.920 26.920 26.920 26 2.58 m/h 0 %
11:00:00 clear sky 33.930 33.930 33.930 16 2.1 m/h 0 %
14:00:00 clear sky 36.790 36.790 36.790 13 3.38 m/h 0 %
17:00:00 few clouds 35.620 35.620 35.620 15 4.67 m/h 0 %
20:00:00 clear sky 28.370 28.370 28.370 26 4.01 m/h 0 %
23:00:00 clear sky 25.540 25.540 25.540 33 3.45 m/h 0 %
11-Apr-2020 (Sat)
02:00:00 clear sky 24.040 24.040 24.040 37 3.35 m/h 0 %
05:00:00 scattered clouds 22.960 22.960 22.960 41 3.46 m/h 0 %
08:00:00 broken clouds 27.800 27.800 27.800 32 3.71 m/h 0 %
11:00:00 scattered clouds 35.030 35.030 35.030 18 3.15 m/h 0 %
14:00:00 clear sky 37.870 37.870 37.870 13 3.3 m/h 0 %
17:00:00 few clouds 37.430 37.430 37.430 13 4.45 m/h 0 %
20:00:00 overcast clouds 30.370 30.370 30.370 20 3.44 m/h 0 %
23:00:00 overcast clouds 28.320 28.320 28.320 21 2.44 m/h 0 %
12-Apr-2020 (Sun)
02:00:00 few clouds 26.560 26.560 26.560 23 2.81 m/h 0 %
05:00:00 scattered clouds 24.920 24.920 24.920 27 1.6 m/h 0 %
08:00:00 broken clouds 29.760 29.760 29.760 22 1.2 m/h 0 %
11:00:00 broken clouds 36.840 36.840 36.840 15 1.51 m/h 0 %
14:00:00 broken clouds 39.410 39.410 39.410 12 4.7 m/h 0 %
17:00:00 broken clouds 38.470 38.470 38.470 12 4.93 m/h 0 %
20:00:00 clear sky 31.230 31.230 31.230 19 2.17 m/h 0 %
23:00:00 few clouds 28.780 28.780 28.780 24 2.03 m/h 0 %
13-Apr-2020 (Mon)
02:00:00 overcast clouds 27.400 27.400 27.400 27 1.9 m/h 0 %
05:00:00 light rain 26.000 26.000 26.000 30 1.47 m/h 16 %
08:00:00 broken clouds 30.840 30.840 30.840 23 0.48 m/h 0 %
11:00:00 broken clouds 38.550 38.550 38.550 14 1.46 m/h 0 %
14:00:00 few clouds 41.500 41.500 41.500 10 3.05 m/h 0 %
17:00:00 few clouds 41.160 41.160 41.160 9 2.46 m/h 0 %
20:00:00 light rain 33.530 33.530 33.530 16 0.69 m/h 12 %
23:00:00 few clouds 31.570 31.570 31.570 18 2.79 m/h 0 %
14-Apr-2020 (Tue)
02:00:00 broken clouds 30.300 30.300 30.300 18 3.62 m/h 0 %


Burewala's Tourist Spots

Historical Places in Burewala

Famous Cities (61)